createdAt,value
2023-07-24T04:37:26.899Z,41.18
2023-07-24T04:43:38.683Z,41.74
2023-07-24T04:46:45.772Z,42.27
2023-07-24T04:49:50.382Z,42.72
2023-07-24T04:56:21.367Z,42.85
2023-07-24T05:06:00.848Z,40.74
2023-07-24T05:09:07.435Z,40.60
2023-07-24T05:18:51.364Z,40.89
2023-07-24T05:21:55.518Z,40.26
2023-07-24T05:25:05.713Z,40.04
2023-07-24T05:28:09.409Z,40.31
2023-07-24T05:31:13.757Z,41.59
2023-07-24T05:34:18.514Z,40.85
2023-07-24T05:37:29.795Z,41.08
2023-07-24T05:40:38.529Z,41.87
2023-07-24T05:43:51.314Z,41.68
2023-07-24T05:46:56.184Z,43.09
2023-07-24T05:56:58.639Z,43.56
2023-07-24T06:00:03.215Z,43.66
2023-07-24T06:03:16.562Z,42.59
2023-07-24T06:06:27.687Z,42.72
2023-07-24T06:09:31.939Z,41.56
2023-07-24T06:12:39.774Z,41.20
2023-07-24T06:15:45.039Z,41.53
2023-07-24T06:18:52.872Z,41.24
2023-07-24T06:21:57.510Z,40.46
2023-07-24T06:25:10.062Z,40.42
2023-07-24T06:28:14.338Z,39.93
2023-07-24T06:31:18.242Z,40.12
2023-07-24T06:44:27.669Z,39.33
2023-07-24T06:47:34.753Z,39.12
2023-07-24T06:50:39.993Z,39.25
2023-07-24T06:53:44.945Z,38.91
2023-07-24T06:56:58.317Z,39.10
2023-07-24T07:00:03.317Z,38.66
2023-07-24T07:03:21.338Z,38.06
2023-07-24T07:06:28.710Z,37.32
2023-07-24T07:09:58.578Z,37.84
2023-07-24T07:13:22.942Z,37.58
2023-07-24T07:16:27.043Z,37.95
2023-07-24T07:19:41.354Z,37.89
2023-07-24T07:26:08.869Z,37.71
2023-07-24T07:32:30.653Z,37.01
2023-07-24T07:38:55.456Z,37.28
2023-07-24T07:48:37.676Z,38.38
2023-07-24T07:59:03.223Z,37.98
2023-07-24T08:05:27.647Z,38.86
2023-07-24T08:08:31.957Z,38.31
2023-07-24T08:11:37.448Z,37.98
2023-07-24T08:14:40.813Z,37.54
2023-07-24T08:17:58.685Z,37.77
2023-07-24T08:21:06.573Z,37.28
2023-07-24T08:24:10.835Z,37.21
2023-07-24T08:31:23.013Z,36.46
2023-07-24T08:34:49.544Z,36.12
2023-07-24T08:48:16.722Z,36.62
2023-07-24T08:54:54.211Z,37.40
2023-07-24T09:01:40.688Z,37.22
2023-07-24T09:04:45.045Z,36.66
2023-07-24T09:07:51.766Z,36.77
2023-07-24T09:10:56.435Z,36.81
2023-07-24T09:14:01.351Z,36.83
2023-07-24T09:24:27.012Z,36.46
2023-07-24T09:27:32.581Z,37.03
2023-07-24T09:30:40.041Z,36.40
2023-07-24T09:33:48.020Z,36.97
2023-07-24T09:44:10.109Z,36.88
2023-07-24T09:50:21.130Z,36.69
2023-07-24T09:53:42.438Z,36.71
2023-07-24T09:57:20.663Z,36.81
2023-07-24T10:00:28.973Z,37.35
2023-07-24T10:03:36.375Z,37.34
2023-07-24T10:06:41.217Z,37.57
2023-07-24T10:09:48.147Z,37.81
2023-07-24T10:12:56.911Z,37.60
2023-07-24T10:16:01.356Z,38.24
2023-07-24T10:19:17.502Z,38.61
2023-07-24T10:22:26.826Z,38.39
2023-07-24T10:25:44.866Z,38.83
2023-07-24T10:28:54.739Z,38.87
2023-07-24T10:32:00.081Z,39.36
2023-07-24T10:35:16.709Z,39.73
2023-07-24T10:38:21.652Z,39.74
2023-07-24T10:41:37.941Z,39.92
2023-07-24T10:44:48.926Z,40.11
2023-07-24T10:47:54.688Z,40.25
2023-07-24T10:51:03.361Z,40.02
2023-07-24T10:54:13.424Z,40.07
2023-07-24T10:57:23.977Z,40.12
2023-07-24T11:00:30.126Z,41.05
2023-07-24T11:03:34.147Z,41.55
2023-07-24T11:06:38.824Z,41.10
2023-07-24T11:09:51.842Z,42.07
2023-07-24T11:13:00.421Z,41.59
2023-07-24T11:16:09.262Z,42.81
2023-07-24T11:19:13.347Z,43.39
2023-07-24T11:25:34.711Z,44.24
2023-07-24T11:28:45.377Z,44.60
2023-07-24T11:31:55.136Z,44.74
2023-07-24T11:34:59.298Z,45.15
2023-07-24T11:38:05.870Z,45.39
2023-07-24T11:41:11.221Z,45.91
2023-07-24T11:44:18.518Z,46.07
2023-07-24T11:47:26.947Z,46.31
2023-07-24T11:50:33.107Z,46.27
2023-07-24T11:53:37.238Z,46.59
2023-07-24T11:56:41.998Z,46.94
2023-07-24T11:59:48.326Z,47.33
2023-07-24T12:02:54.962Z,47.67
2023-07-24T12:06:01.074Z,48.41
2023-07-24T12:09:10.252Z,48.83
2023-07-24T12:12:18.530Z,50.64
2023-07-24T12:15:22.627Z,51.96
2023-07-24T12:18:27.446Z,52.69
2023-07-24T12:21:31.455Z,53.07
2023-07-24T12:24:35.909Z,53.44
2023-07-24T12:27:42.067Z,53.92
2023-07-24T12:30:45.857Z,54.01
2023-07-24T12:33:51.438Z,54.70
2023-07-24T12:36:57.492Z,54.83
2023-07-24T12:40:01.651Z,55.12
2023-07-24T12:43:07.593Z,55.44
2023-07-24T12:49:27.820Z,55.55
2023-07-24T12:52:33.529Z,56.01
2023-07-24T12:55:40.773Z,55.96
2023-07-24T12:58:45.995Z,55.79
2023-07-24T13:01:51.024Z,55.65
2023-07-24T13:04:55.231Z,55.77
2023-07-24T13:07:59.390Z,56.48
2023-07-24T13:11:03.426Z,57.16
2023-07-24T13:14:08.125Z,57.56
2023-07-24T13:17:13.984Z,57.71
2023-07-24T13:20:17.913Z,58.08
2023-07-24T13:23:21.354Z,57.03
2023-07-24T13:26:26.461Z,57.34
2023-07-24T13:29:33.259Z,57.55
2023-07-24T13:32:37.158Z,57.08
2023-07-24T13:35:41.443Z,57.34
2023-07-24T13:38:46.536Z,56.87
2023-07-24T13:41:50.451Z,57.05
2023-07-24T13:44:54.801Z,57.14
2023-07-24T13:51:18.259Z,57.29
2023-07-24T13:54:22.589Z,57.61
2023-07-24T13:57:30.045Z,56.83
2023-07-24T14:00:34.951Z,57.33
2023-07-24T14:03:39.079Z,57.70
2023-07-24T14:06:47.396Z,57.48
2023-07-24T14:09:51.098Z,57.76
2023-07-24T14:12:55.503Z,57.88
2023-07-24T14:16:00.180Z,57.26
2023-07-24T14:19:04.400Z,57.30
2023-07-24T14:22:09.005Z,57.48
2023-07-24T14:25:12.635Z,57.23
2023-07-24T14:28:15.973Z,57.18
2023-07-24T14:31:20.558Z,57.35
2023-07-24T14:34:25.143Z,57.58
2023-07-24T14:37:29.538Z,58.17
2023-07-24T14:40:34.104Z,58.23
2023-07-24T14:43:38.232Z,58.34
2023-07-24T14:46:43.391Z,58.92
2023-07-24T14:49:47.449Z,59.03
2023-07-24T14:52:51.649Z,59.26
2023-07-24T14:55:56.282Z,59.67
2023-07-24T14:59:00.119Z,60.28
2023-07-24T15:02:03.571Z,60.26
2023-07-24T15:05:07.908Z,60.58
2023-07-24T15:08:12.612Z,60.47
2023-07-24T15:11:16.649Z,60.83
2023-07-24T15:14:20.778Z,60.99
2023-07-24T15:17:24.794Z,61.43
2023-07-24T15:20:29.538Z,61.61
2023-07-24T15:23:32.848Z,62.04
2023-07-24T15:26:41.037Z,62.21
2023-07-24T15:29:44.276Z,62.35
2023-07-24T15:32:48.673Z,62.64
2023-07-24T15:35:56.885Z,62.62
2023-07-24T15:39:01.581Z,62.69
2023-07-24T15:42:05.569Z,62.82
2023-07-24T15:45:10.698Z,62.80
2023-07-24T15:48:18.127Z,62.86
2023-07-24T15:51:24.367Z,63.09
2023-07-24T15:54:27.605Z,63.01
2023-07-24T15:57:33.742Z,63.75
2023-07-24T16:00:38.924Z,64.45
2023-07-24T16:03:44.006Z,64.34
2023-07-24T16:06:47.866Z,64.36
2023-07-24T16:09:52.395Z,64.14
2023-07-24T16:13:01.330Z,64.27
2023-07-24T16:16:06.261Z,64.62
2023-07-24T16:19:21.178Z,64.94
2023-07-24T16:22:26.365Z,65.27
2023-07-24T16:25:30.798Z,65.39
2023-07-24T16:28:35.229Z,65.76
2023-07-24T16:31:39.788Z,65.58
2023-07-24T16:34:44.642Z,65.93
2023-07-24T16:37:49.554Z,66.24
2023-07-24T16:40:54.738Z,66.65
2023-07-24T16:47:17.174Z,66.52
2023-07-24T16:50:21.490Z,66.40
2023-07-24T16:53:24.924Z,66.32
2023-07-24T16:56:28.156Z,66.02
2023-07-24T16:59:33.113Z,65.77
2023-07-24T17:02:39.247Z,65.98
2023-07-24T17:05:44.283Z,66.40
2023-07-24T17:08:49.918Z,66.69
2023-07-24T17:11:53.601Z,66.74
2023-07-24T17:14:57.910Z,66.54
2023-07-24T17:18:02.355Z,66.36
2023-07-24T17:21:06.968Z,66.40
2023-07-24T17:24:13.541Z,66.14
2023-07-24T17:27:18.292Z,66.28
2023-07-24T17:30:22.661Z,66.50
2023-07-24T17:33:26.662Z,66.25
2023-07-24T17:36:30.935Z,66.30
2023-07-24T17:39:34.915Z,66.20
2023-07-24T17:42:39.539Z,66.31
2023-07-24T17:45:43.679Z,66.28
2023-07-24T17:48:48.101Z,66.57
2023-07-24T17:51:52.228Z,66.49
2023-07-24T17:54:55.891Z,66.48
2023-07-24T17:57:59.358Z,66.50
2023-07-24T18:01:03.115Z,66.54
2023-07-24T18:04:09.846Z,66.64
2023-07-24T18:07:14.245Z,66.76
2023-07-24T18:10:17.845Z,67.03
2023-07-24T18:13:22.594Z,67.08
2023-07-24T18:16:26.714Z,67.27
2023-07-24T18:19:31.038Z,67.58
2023-07-24T18:22:34.897Z,68.00
2023-07-24T18:25:39.160Z,68.42
2023-07-24T18:28:43.747Z,68.69
2023-07-24T18:31:47.818Z,68.81
2023-07-24T18:34:52.729Z,69.04
2023-07-24T18:37:56.203Z,69.11
2023-07-24T18:41:01.053Z,69.30
2023-07-24T18:44:05.241Z,69.32
2023-07-24T18:47:09.451Z,68.97
2023-07-24T18:50:13.273Z,68.94
2023-07-24T18:53:19.005Z,68.95
2023-07-24T18:56:25.909Z,68.67
2023-07-24T18:59:31.256Z,67.60
2023-07-24T19:02:35.774Z,68.03
2023-07-24T19:05:40.274Z,69.05
2023-07-24T19:08:44.214Z,69.27
2023-07-24T19:11:49.968Z,68.98
2023-07-24T19:14:53.066Z,68.90
2023-07-24T19:18:01.180Z,68.89
2023-07-24T19:21:06.801Z,68.85
2023-07-24T19:24:12.346Z,68.52
2023-07-24T19:27:16.523Z,68.78
2023-07-24T19:30:21.642Z,68.78
2023-07-24T19:33:27.659Z,68.97
2023-07-24T19:36:30.864Z,69.29
2023-07-24T19:39:34.099Z,69.00
2023-07-24T19:42:37.660Z,69.11
2023-07-24T19:45:41.618Z,68.84
2023-07-24T19:48:45.534Z,68.54
2023-07-24T19:51:51.640Z,68.32
2023-07-24T19:54:55.208Z,68.01
2023-07-24T19:57:59.135Z,68.19
2023-07-24T20:01:06.868Z,68.31
2023-07-24T20:04:10.241Z,68.07
2023-07-24T20:07:15.115Z,68.22
2023-07-24T20:10:19.081Z,68.54
2023-07-24T20:13:23.570Z,68.61
2023-07-24T20:16:27.943Z,68.47
2023-07-24T20:19:31.904Z,69.02
2023-07-24T20:22:36.412Z,69.80
2023-07-24T20:25:47.086Z,70.34
2023-07-24T20:28:51.174Z,70.67
2023-07-24T20:31:55.266Z,70.65
2023-07-24T20:35:00.228Z,70.54
2023-07-24T20:38:07.153Z,71.24
2023-07-24T20:41:10.798Z,71.04
2023-07-24T20:44:14.975Z,71.85
2023-07-24T20:47:19.154Z,72.36
2023-07-24T20:50:25.283Z,72.71
2023-07-24T20:53:30.572Z,73.00
2023-07-24T20:56:36.164Z,73.30
2023-07-24T20:59:40.963Z,72.26
2023-07-24T21:02:45.898Z,71.72
2023-07-24T21:05:50.050Z,71.75
2023-07-24T21:08:54.624Z,71.83
2023-07-24T21:12:02.646Z,71.65
2023-07-24T21:15:08.448Z,71.28
2023-07-24T21:18:14.707Z,71.51
2023-07-24T21:21:20.854Z,71.40
2023-07-24T21:24:24.747Z,71.18
2023-07-24T21:27:29.304Z,71.05
2023-07-24T21:30:33.146Z,70.82
2023-07-24T21:33:38.191Z,70.93
2023-07-24T21:36:46.560Z,71.05
2023-07-24T21:39:51.302Z,71.10
2023-07-24T21:42:55.188Z,71.11
2023-07-24T21:45:59.685Z,70.80
2023-07-24T21:49:03.931Z,70.60
2023-07-24T21:52:07.896Z,70.43
2023-07-24T21:55:12.422Z,70.14
2023-07-24T21:58:17.219Z,69.58
2023-07-24T22:01:23.497Z,69.00
2023-07-24T22:04:27.054Z,68.50
2023-07-24T22:07:30.996Z,68.23
2023-07-24T22:10:34.795Z,67.96
2023-07-24T22:13:38.713Z,67.91
2023-07-24T22:16:43.093Z,68.16
2023-07-24T22:19:50.545Z,68.04
2023-07-24T23:18:49.175Z,71.66
2023-07-24T23:25:17.986Z,73.12
2023-07-24T23:28:22.499Z,72.43
2023-07-24T23:31:26.856Z,71.31
2023-07-24T23:44:45.357Z,70.41
2023-07-24T23:47:51.517Z,70.46
2023-07-24T23:50:58.586Z,70.26
2023-07-24T23:54:03.947Z,70.74
2023-07-24T23:57:08.523Z,70.71
